Time;durP1;ratioP1;P1;durP2;ratioP2;P2;SDS_P1;SDS_P2;PMS_P1;PMS_P2;Temp;Humidity;BMP_temperature;BMP_pressure;BME280_temperature;BME280_humidity;BME280_pressure;Samples;Min_cycle;Max_cycle;Signal;HPM_P1;HPM_P2
2021/06/30 00:01:08;;;;;;;3.97;3.37;;;;;;;15.67;100.00;97819.59;5076531;28;20212;-60
2021/06/30 00:03:35;;;;;;;3.20;2.90;;;;;;;15.71;100.00;97820.16;5076463;28;20234;-60
2021/06/30 00:06:03;;;;;;;3.53;3.17;;;;;;;15.79;100.00;97820.25;5076459;28;20218;-60
2021/06/30 00:08:30;;;;;;;3.83;3.00;;;;;;;15.89;100.00;97823.72;5076291;28;20208;-60
2021/06/30 00:10:56;;;;;;;3.83;3.03;;;;;;;15.95;100.00;97825.81;5076338;28;20234;-60
2021/06/30 00:13:24;;;;;;;4.87;3.53;;;;;;;16.04;100.00;97829.25;5074555;28;20210;-60
2021/06/30 00:15:51;;;;;;;4.43;3.53;;;;;;;16.13;100.00;97833.72;5076114;28;20236;-60
2021/06/30 00:18:18;;;;;;;4.13;3.37;;;;;;;16.14;100.00;97824.72;5075886;28;20212;-61
2021/06/30 00:20:45;;;;;;;5.20;3.57;;;;;;;16.20;100.00;97817.94;5076091;28;20208;-61
2021/06/30 00:23:13;;;;;;;4.93;3.67;;;;;;;16.20;100.00;97812.63;5075938;28;20258;-60
2021/06/30 00:25:39;;;;;;;4.27;3.63;;;;;;;16.20;100.00;97810.81;5076048;28;20218;-60
2021/06/30 00:28:06;;;;;;;4.93;3.43;;;;;;;16.19;100.00;97821.63;5075950;28;20215;-58
2021/06/30 00:30:32;;;;;;;3.87;3.50;;;;;;;16.20;100.00;97826.81;5075953;28;20214;-60
2021/06/30 00:32:59;;;;;;;4.33;3.53;;;;;;;16.19;100.00;97821.63;5075907;28;20216;-61
2021/06/30 00:35:25;;;;;;;4.63;3.13;;;;;;;16.18;100.00;97826.13;5075909;28;20214;-60
2021/06/30 00:37:52;;;;;;;4.57;3.13;;;;;;;16.16;100.00;97830.75;5074145;28;20210;-60
2021/06/30 00:40:20;;;;;;;5.87;3.40;;;;;;;16.17;100.00;97829.78;5075868;28;20215;-61
2021/06/30 00:42:47;;;;;;;4.73;3.23;;;;;;;16.18;100.00;97820.78;5075391;28;20708;-61
2021/06/30 00:45:18;;;;;;;3.40;3.10;;;;;;;16.24;100.00;97822.88;5075822;28;20580;-60
2021/06/30 00:47:45;;;;;;;2.90;2.60;;;;;;;16.27;100.00;97819.88;5075984;28;20208;-61
2021/06/30 00:50:14;;;;;;;4.57;2.77;;;;;;;16.28;100.00;97826.06;5075632;28;20207;-60
2021/06/30 00:52:41;;;;;;;4.13;2.80;;;;;;;16.29;100.00;97833.09;5075281;28;20212;-60
2021/06/30 00:55:08;;;;;;;3.63;2.63;;;;;;;16.25;100.00;97829.88;5075405;28;20579;-60
2021/06/30 00:57:36;;;;;;;2.57;2.00;;;;;;;16.22;100.00;97832.00;5075196;28;20214;-60
2021/06/30 01:00:06;;;;;;;4.90;2.10;;;;;;;16.17;100.00;97839.59;5074940;28;20208;-60
2021/06/30 01:02:33;;;;;;;2.47;2.27;;;;;;;16.15;100.00;97844.25;5074892;28;20211;-60
2021/06/30 01:04:59;;;;;;;2.67;1.90;;;;;;;16.06;100.00;97846.94;5073649;28;20207;-61
2021/06/30 01:07:26;;;;;;;2.60;2.10;;;;;;;16.03;100.00;97838.25;5075012;28;20211;-61
2021/06/30 01:09:52;;;;;;;2.17;2.00;;;;;;;16.01;100.00;97833.22;5074911;28;20208;-60
2021/06/30 01:12:19;;;;;;;1.93;1.83;;;;;;;15.98;100.00;97845.84;5075234;28;20211;-61
2021/06/30 01:14:46;;;;;;;3.70;1.90;;;;;;;15.94;100.00;97845.47;5074699;28;20687;-60
2021/06/30 01:17:13;;;;;;;2.60;2.10;;;;;;;15.94;100.00;97848.13;5075202;28;20218;-61
2021/06/30 01:19:39;;;;;;;2.00;1.90;;;;;;;15.96;100.00;97847.00;5075071;28;20580;-61
2021/06/30 01:22:07;;;;;;;2.40;2.20;;;;;;;15.93;100.00;97847.28;5074704;28;20669;-62
2021/06/30 01:24:35;;;;;;;1.80;1.70;;;;;;;15.92;100.00;97855.41;5074620;28;20280;-61
2021/06/30 01:27:03;;;;;;;1.87;1.77;;;;;;;15.88;100.00;97859.38;5074569;28;20211;-61
2021/06/30 01:29:29;;;;;;;2.07;1.87;;;;;;;15.90;100.00;97857.38;5074079;28;20222;-61
2021/06/30 01:31:56;;;;;;;3.53;2.10;;;;;;;15.94;100.00;97853.47;5073709;28;20211;-61
2021/06/30 01:34:22;;;;;;;3.43;1.57;;;;;;;15.89;100.00;97855.72;5074407;28;20202;-61
2021/06/30 01:36:51;;;;;;;3.13;1.40;;;;;;;15.89;100.00;97855.72;5074507;28;20215;-61
2021/06/30 01:39:19;;;;;;;1.67;1.50;;;;;;;15.91;100.00;97861.72;5074401;28;20211;-61
2021/06/30 01:41:47;;;;;;;1.40;1.30;;;;;;;15.91;100.00;97867.06;5074570;28;20233;-61
2021/06/30 01:44:15;;;;;;;1.57;1.33;;;;;;;15.88;100.00;97867.38;5074487;28;20238;-61
2021/06/30 01:46:44;;;;;;;3.50;1.37;;;;;;;15.85;100.00;97864.97;5074573;28;20211;-61
2021/06/30 01:49:11;;;;;;;1.17;1.10;;;;;;;15.78;100.00;97870.06;5074503;28;20211;-61
2021/06/30 01:51:37;;;;;;;1.30;1.20;;;;;;;15.76;100.00;97865.84;5074362;28;20268;-60
2021/06/30 01:54:09;;;;;;;1.53;1.17;;;;;;;15.72;100.00;97861.78;5074266;28;20215;-60
2021/06/30 01:56:35;;;;;;;1.30;1.20;;;;;;;15.65;100.00;97864.16;5072523;28;20214;-61
2021/06/30 01:59:06;;;;;;;0.87;0.87;;;;;;;15.63;100.00;97854.66;5074013;28;20226;-60
2021/06/30 02:01:33;;;;;;;1.23;1.13;;;;;;;15.59;100.00;97859.41;5073734;28;20226;-61
2021/06/30 02:04:01;;;;;;;1.50;1.20;;;;;;;15.52;100.00;97854.81;5074071;28;20245;-61
2021/06/30 02:06:28;;;;;;;1.87;1.10;;;;;;;15.52;100.00;97846.84;5073874;28;20215;-60
2021/06/30 02:08:57;;;;;;;2.10;1.00;;;;;;;15.51;100.00;97839.84;5073793;28;20207;-60
2021/06/30 02:11:24;;;;;;;1.07;0.90;;;;;;;15.45;100.00;97851.06;5073661;28;20210;-60
2021/06/30 02:13:51;;;;;;;2.50;0.90;;;;;;;15.39;100.00;97840.97;5073900;28;20211;-60
2021/06/30 02:16:19;;;;;;;2.20;1.10;;;;;;;15.30;100.00;97831.97;5073651;28;20227;-60
2021/06/30 02:18:46;;;;;;;1.50;0.90;;;;;;;15.26;100.00;97821.75;5073806;28;20215;-60
2021/06/30 02:21:12;;;;;;;2.60;1.00;;;;;;;15.24;100.00;97837.03;5073036;28;20219;-60
2021/06/30 02:23:39;;;;;;;1.30;1.03;;;;;;;15.24;100.00;97842.34;5072025;28;20243;-61
2021/06/30 02:26:05;;;;;;;2.17;1.07;;;;;;;15.17;100.00;97841.25;5073977;28;20215;-60
2021/06/30 02:28:32;;;;;;;2.23;1.50;;;;;;;15.12;100.00;97832.81;5073602;28;20226;-60
2021/06/30 02:30:59;;;;;;;0.90;0.73;;;;;;;15.09;100.00;97844.59;5073383;28;20225;-62
2021/06/30 02:33:27;;;;;;;0.90;0.90;;;;;;;15.02;100.00;97837.34;5073308;28;20668;-61
2021/06/30 02:35:53;;;;;;;0.87;0.77;;;;;;;14.93;100.00;97840.81;5073434;28;20219;-61
2021/06/30 02:38:20;;;;;;;1.00;0.90;;;;;;;14.89;100.00;97852.72;5073350;28;20213;-60
2021/06/30 02:40:47;;;;;;;1.47;0.90;;;;;;;14.86;100.00;97848.50;5073530;28;20217;-60
2021/06/30 02:43:13;;;;;;;2.40;0.90;;;;;;;14.87;100.00;97852.03;5073439;28;20311;-60
2021/06/30 02:45:40;;;;;;;1.00;0.90;;;;;;;14.82;100.00;97848.94;5073480;28;20211;-59
2021/06/30 02:48:07;;;;;;;1.07;1.00;;;;;;;14.82;100.00;97859.56;5071621;28;20570;-58
2021/06/30 02:50:35;;;;;;;1.00;0.90;;;;;;;14.81;100.00;97860.56;5073459;28;20221;-60
2021/06/30 02:53:01;;;;;;;3.10;1.20;;;;;;;14.79;100.00;97862.53;5073251;28;20578;-61
2021/06/30 02:55:28;;;;;;;1.13;1.03;;;;;;;14.82;100.00;97854.25;5073191;28;20211;-61
2021/06/30 02:57:54;;;;;;;0.90;0.90;;;;;;;14.81;100.00;97852.56;5073417;28;20218;-61
2021/06/30 03:00:24;;;;;;;0.80;0.80;;;;;;;14.83;100.00;97858.59;5072923;28;20680;-60
2021/06/30 03:02:50;;;;;;;2.77;0.97;;;;;;;14.80;100.00;97857.03;5073243;28;20223;-61
2021/06/30 03:05:17;;;;;;;1.50;0.70;;;;;;;14.80;100.00;97867.69;5073103;28;20234;-61
2021/06/30 03:07:50;;;;;;;0.80;0.73;;;;;;;14.82;100.00;97857.78;5073192;28;20210;-61
2021/06/30 03:10:17;;;;;;;0.70;0.70;;;;;;;14.86;100.00;97863.66;5072933;28;20664;-61
2021/06/30 03:12:43;;;;;;;2.13;0.73;;;;;;;14.86;100.00;97866.31;5073178;28;20224;-61
2021/06/30 03:15:12;;;;;;;0.50;0.50;;;;;;;14.89;100.00;97858.03;5071384;28;20241;-61
2021/06/30 03:17:38;;;;;;;0.70;0.70;;;;;;;14.89;100.00;97858.88;5073055;28;20219;-61
2021/06/30 03:20:08;;;;;;;1.50;0.70;;;;;;;14.86;100.00;97856.50;5072667;28;20218;-61
2021/06/30 03:22:34;;;;;;;0.60;0.60;;;;;;;14.90;100.00;97854.41;5072986;28;20210;-61
2021/06/30 03:25:03;;;;;;;2.03;0.50;;;;;;;14.89;100.00;97855.38;5072613;28;20711;-61
2021/06/30 03:27:29;;;;;;;0.50;0.50;;;;;;;14.89;100.00;97858.88;5072765;28;20213;-60
2021/06/30 03:29:56;;;;;;;1.23;0.57;;;;;;;14.84;100.00;97865.63;5072640;28;20216;-60
2021/06/30 03:32:22;;;;;;;0.50;0.50;;;;;;;14.84;100.00;97866.44;5075447;28;20206;-60
2021/06/30 03:34:49;;;;;;;0.50;0.50;;;;;;;14.84;100.00;97860.31;5076928;28;20217;-60
2021/06/30 03:37:15;;;;;;;0.53;0.53;;;;;;;14.85;100.00;97861.97;5076694;28;20683;-60
2021/06/30 03:39:41;;;;;;;0.50;0.50;;;;;;;14.84;100.00;97849.66;5075949;28;20699;-61
2021/06/30 03:42:09;;;;;;;0.50;0.50;;;;;;;14.83;100.00;97863.91;5076050;28;20280;-60
2021/06/30 03:44:36;;;;;;;0.90;0.57;;;;;;;14.78;100.00;97869.66;5076695;28;20233;-60
2021/06/30 03:47:03;;;;;;;0.77;0.50;;;;;;;14.73;100.00;97871.06;5076362;28;20219;-59
2021/06/30 03:49:29;;;;;;;1.07;0.40;;;;;;;14.77;100.00;97869.78;5076775;28;20213;-58
2021/06/30 03:51:56;;;;;;;1.27;0.60;;;;;;;14.83;100.00;97864.75;5076420;28;20675;-60
2021/06/30 03:54:24;;;;;;;0.50;0.47;;;;;;;14.79;100.00;97873.16;5076588;28;20643;-60
2021/06/30 03:56:51;;;;;;;0.40;0.40;;;;;;;14.68;100.00;97875.94;5076475;28;20285;-60
2021/06/30 03:59:20;;;;;;;1.83;0.60;;;;;;;14.73;100.00;97874.53;5076543;28;20596;-57
2021/06/30 04:01:46;;;;;;;0.60;0.43;;;;;;;14.72;100.00;97877.38;5076268;28;20214;-60
2021/06/30 04:04:14;;;;;;;0.40;0.40;;;;;;;14.71;100.00;97886.28;5076211;28;20245;-60
2021/06/30 04:06:41;;;;;;;0.40;0.40;;;;;;;14.74;100.00;97891.38;5074413;28;20249;-59
2021/06/30 04:09:07;;;;;;;0.93;0.60;;;;;;;14.80;100.00;97888.16;5076316;28;20297;-59
2021/06/30 04:11:34;;;;;;;0.40;0.40;;;;;;;14.78;100.00;97893.59;5076210;28;20218;-58
2021/06/30 04:14:00;;;;;;;0.50;0.50;;;;;;;14.75;100.00;97883.25;5076224;28;20220;-58
2021/06/30 04:16:28;;;;;;;0.60;0.60;;;;;;;14.76;100.00;97895.56;5076381;28;20229;-58
2021/06/30 04:18:55;;;;;;;0.50;0.40;;;;;;;14.75;100.00;97898.34;5075807;28;20220;-57
2021/06/30 04:21:22;;;;;;;0.87;0.60;;;;;;;14.70;100.00;97887.28;5075953;28;20218;-59
2021/06/30 04:23:49;;;;;;;0.50;0.50;;;;;;;14.61;100.00;97891.59;5075892;28;20236;-60
2021/06/30 04:26:16;;;;;;;0.40;0.40;;;;;;;14.59;100.00;97892.72;5075855;28;20270;-61
2021/06/30 04:28:43;;;;;;;0.50;0.50;;;;;;;14.58;100.00;97893.69;5076020;28;20209;-61
2021/06/30 04:31:09;;;;;;;0.50;0.50;;;;;;;14.57;100.00;97894.69;5075783;28;20289;-61
2021/06/30 04:33:37;;;;;;;0.40;0.40;;;;;;;14.61;100.00;97893.44;5073969;28;20215;-61
2021/06/30 04:36:04;;;;;;;0.50;0.50;;;;;;;14.64;100.00;97898.47;5075575;28;20687;-61
2021/06/30 04:38:30;;;;;;;1.43;0.60;;;;;;;14.73;100.00;97890.50;5075450;28;20216;-60
2021/06/30 04:40:57;;;;;;;0.73;0.50;;;;;;;14.68;100.00;97898.09;5075663;28;20216;-61
2021/06/30 04:43:24;;;;;;;0.60;0.40;;;;;;;14.66;100.00;97896.53;5075020;28;20235;-61
2021/06/30 04:45:51;;;;;;;0.77;0.60;;;;;;;14.73;100.00;97897.66;5075247;28;20245;-61
2021/06/30 04:48:19;;;;;;;0.57;0.57;;;;;;;14.76;100.00;97897.38;5075608;28;20587;-59
2021/06/30 04:50:47;;;;;;;0.40;0.40;;;;;;;14.81;100.00;97898.66;5075261;28;20218;-59
2021/06/30 04:53:14;;;;;;;0.77;0.60;;;;;;;14.88;100.00;97893.63;5075670;28;20214;-60
2021/06/30 04:55:40;;;;;;;0.77;0.60;;;;;;;14.94;100.00;97893.91;5075268;28;20248;-60
2021/06/30 04:58:08;;;;;;;0.50;0.50;;;;;;;15.01;100.00;97899.50;5073752;28;20213;-61
2021/06/30 05:00:35;;;;;;;1.53;0.67;;;;;;;15.09;100.00;97892.50;5075474;28;20213;-60
2021/06/30 05:03:01;;;;;;;0.57;0.50;;;;;;;15.15;100.00;97893.78;5075430;28;20210;-60
2021/06/30 05:05:28;;;;;;;1.20;0.53;;;;;;;15.25;100.00;97891.94;5075330;28;20241;-60
2021/06/30 05:07:56;;;;;;;0.80;0.60;;;;;;;15.38;100.00;97892.53;5075366;28;20578;-57
2021/06/30 05:10:22;;;;;;;0.50;0.50;;;;;;;15.56;100.00;97890.84;5074957;28;20675;-60
2021/06/30 05:12:49;;;;;;;0.83;0.53;;;;;;;15.79;100.00;97879.72;5075243;28;20206;-60
2021/06/30 05:15:15;;;;;;;0.53;0.50;;;;;;;16.02;100.00;97883.69;5075006;28;20242;-61
2021/06/30 05:17:41;;;;;;;0.40;0.40;;;;;;;16.25;100.00;97885.88;5075010;28;20575;-61
2021/06/30 05:20:09;;;;;;;0.40;0.40;;;;;;;16.59;100.00;97880.81;5074781;28;20205;-60
2021/06/30 05:22:36;;;;;;;0.67;0.67;;;;;;;16.89;100.00;97892.00;5075084;28;20225;-60
2021/06/30 05:25:04;;;;;;;0.37;0.37;;;;;;;16.94;100.00;97888.91;5073017;28;20241;-60
2021/06/30 05:27:31;;;;;;;0.50;0.40;;;;;;;16.90;100.00;97887.50;5074740;28;20207;-60
2021/06/30 05:29:57;;;;;;;0.43;0.43;;;;;;;16.89;100.00;97886.66;5074805;28;20215;-60
2021/06/30 05:32:24;;;;;;;0.67;0.30;;;;;;;16.96;100.00;97892.25;5074749;28;20215;-61
2021/06/30 05:34:50;;;;;;;0.40;0.40;;;;;;;16.97;100.00;97894.78;5074761;28;20215;-61
2021/06/30 05:37:17;;;;;;;0.33;0.33;;;;;;;16.97;100.00;97894.78;5074513;28;20210;-61
2021/06/30 05:39:43;;;;;;;0.20;0.20;;;;;;;16.90;100.00;97899.03;5074687;28;20215;-60
2021/06/30 05:42:11;;;;;;;0.50;0.50;;;;;;;16.93;100.00;97901.41;5074374;28;20677;-60
2021/06/30 05:44:38;;;;;;;0.80;0.50;;;;;;;17.31;100.00;97895.75;5074445;28;20242;-60
2021/06/30 05:47:05;;;;;;;0.33;0.33;;;;;;;17.72;97.90;97891.59;5074258;28;20211;-60
2021/06/30 05:49:31;;;;;;;0.33;0.30;;;;;;;18.02;95.53;97900.03;5074592;28;20218;-60
2021/06/30 05:51:57;;;;;;;0.30;0.30;;;;;;;18.98;87.10;97899.66;5072729;28;20212;-60
2021/06/30 05:54:24;;;;;;;6.80;0.70;;;;;;;20.58;75.54;97902.28;5073878;28;20221;-60
2021/06/30 05:56:50;;;;;;;0.50;0.30;;;;;;;21.08;73.74;97898.22;5073305;28;20277;-61
2021/06/30 05:59:18;;;;;;;0.57;0.40;;;;;;;21.13;73.52;97906.59;5074255;28;20582;-61
2021/06/30 06:01:45;;;;;;;0.57;0.40;;;;;;;21.44;73.39;97904.72;5073941;28;20218;-61
2021/06/30 06:04:11;;;;;;;1.60;0.43;;;;;;;22.42;67.38;97896.44;5074093;28;20211;-61
2021/06/30 06:06:38;;;;;;;0.40;0.40;;;;;;;22.58;66.93;97912.44;5073875;28;20213;-61
2021/06/30 06:09:04;;;;;;;0.97;0.40;;;;;;;21.78;70.64;97917.75;5073964;28;20214;-62
2021/06/30 06:11:31;;;;;;;1.33;0.60;;;;;;;20.94;73.59;97916.94;5073938;28;20223;-61
2021/06/30 06:13:57;;;;;;;0.47;0.47;;;;;;;20.29;77.14;97910.94;5073780;28;20218;-60
2021/06/30 06:16:32;;;;;;;0.67;0.50;;;;;;;19.91;79.67;97908.13;5088959;27;20562;-60
2021/06/30 06:18:58;;;;;;;0.40;0.40;;;;;;;19.68;79.82;97907.97;5090767;28;20213;-60
2021/06/30 06:21:25;;;;;;;0.80;0.50;;;;;;;19.53;78.78;97914.16;5090696;28;20575;-61
2021/06/30 06:23:52;;;;;;;0.40;0.40;;;;;;;19.31;81.17;97909.44;5089283;28;20222;-61
2021/06/30 06:26:20;;;;;;;0.53;0.53;;;;;;;19.20;81.71;97912.44;5087830;28;20217;-60
2021/06/30 06:28:47;;;;;;;0.50;0.50;;;;;;;19.08;82.53;97911.88;5090116;28;20215;-60
2021/06/30 06:31:15;;;;;;;0.97;0.50;;;;;;;19.02;83.04;97907.19;5090345;28;20242;-60
2021/06/30 06:33:43;;;;;;;0.63;0.43;;;;;;;19.00;83.51;97903.84;5090416;28;20289;-61
2021/06/30 06:36:11;;;;;;;0.70;0.50;;;;;;;18.96;84.17;97907.84;5090002;28;20234;-61
2021/06/30 06:38:38;;;;;;;0.50;0.50;;;;;;;18.85;85.56;97900.13;5090057;28;20213;-61
2021/06/30 06:41:05;;;;;;;0.60;0.50;;;;;;;18.89;82.94;97911.34;5089978;28;20298;-61
2021/06/30 06:43:33;;;;;;;1.20;0.60;;;;;;;19.70;78.78;97905.94;5088326;28;20227;-61
2021/06/30 06:45:59;;;;;;;0.60;0.60;;;;;;;21.30;70.75;97902.78;5089832;28;20718;-61
2021/06/30 06:48:26;;;;;;;0.93;0.60;;;;;;;22.21;67.56;97896.34;5089839;28;20216;-60
2021/06/30 06:50:54;;;;;;;0.93;0.50;;;;;;;21.95;68.29;97900.47;5089945;28;20586;-61
2021/06/30 06:53:20;;;;;;;0.40;0.40;;;;;;;21.65;70.34;97907.56;5089685;28;20216;-61
2021/06/30 06:55:47;;;;;;;0.50;0.50;;;;;;;21.24;71.66;97903.50;5089712;28;20230;-60
2021/06/30 06:58:13;;;;;;;1.80;0.67;;;;;;;20.96;70.60;97904.19;5089992;28;20214;-61
2021/06/30 07:00:40;;;;;;;5.03;0.97;;;;;;;20.89;71.96;97906.72;5089764;28;20212;-61
2021/06/30 07:03:06;;;;;;;1.60;0.33;;;;;;;21.45;71.47;97910.94;5089934;28;20222;-61
2021/06/30 07:05:33;;;;;;;1.30;0.60;;;;;;;21.78;68.23;97902.47;5089858;28;20214;-61
2021/06/30 07:08:00;;;;;;;0.40;0.40;;;;;;;21.73;67.95;97910.22;5089544;28;20207;-61
2021/06/30 07:10:27;;;;;;;0.40;0.40;;;;;;;21.78;68.82;97901.63;5088482;28;20691;-60
2021/06/30 07:12:53;;;;;;;0.50;0.50;;;;;;;21.75;70.96;97902.81;5089597;28;20203;-61
2021/06/30 07:15:20;;;;;;;0.90;0.50;;;;;;;21.31;68.17;97903.63;5089544;28;20692;-61
2021/06/30 07:17:46;;;;;;;1.00;0.40;;;;;;;20.71;68.60;97899.88;5086323;28;20255;-61
2021/06/30 07:20:13;;;;;;;0.40;0.40;;;;;;;20.21;71.40;97899.38;5089105;28;20210;-60
2021/06/30 07:22:39;;;;;;;0.40;0.40;;;;;;;19.70;71.82;97907.81;5089504;28;20203;-60
2021/06/30 07:25:08;;;;;;;1.13;0.50;;;;;;;19.40;71.66;97912.00;5089794;28;20215;-60
2021/06/30 07:27:35;;;;;;;0.43;0.40;;;;;;;19.07;73.64;97906.72;5077518;28;20645;-60
2021/06/30 07:30:01;;;;;;;0.50;0.50;;;;;;;19.41;74.23;97902.94;5075876;28;20219;-60
2021/06/30 07:32:28;;;;;;;0.60;0.40;;;;;;;19.75;75.13;97905.47;5075569;28;20212;-60
2021/06/30 07:34:54;;;;;;;0.47;0.40;;;;;;;19.98;71.76;97906.44;5074029;28;20235;-60
2021/06/30 07:37:21;;;;;;;0.97;0.30;;;;;;;20.15;70.51;97914.34;5075388;28;20218;-60
2021/06/30 07:39:47;;;;;;;0.30;0.30;;;;;;;20.13;68.12;97905.63;5075579;28;20211;-61
2021/06/30 07:42:15;;;;;;;0.40;0.40;;;;;;;20.21;69.26;97913.66;5075453;28;20215;-61
2021/06/30 07:44:43;;;;;;;0.27;0.20;;;;;;;20.39;67.27;97908.91;5075478;28;20220;-61
2021/06/30 07:47:10;;;;;;;0.70;0.50;;;;;;;20.71;68.57;97910.63;5075595;28;20639;-60
2021/06/30 07:49:37;;;;;;;0.37;0.37;;;;;;;20.98;69.18;97902.97;5075435;28;20216;-61
2021/06/30 07:52:04;;;;;;;0.50;0.30;;;;;;;21.21;69.55;97908.41;5075233;28;20582;-60
2021/06/30 07:54:33;;;;;;;1.00;0.40;;;;;;;21.33;67.93;97898.91;5075416;28;20214;-61
2021/06/30 07:56:59;;;;;;;0.40;0.40;;;;;;;21.34;67.31;97906.78;5075179;28;20276;-61
2021/06/30 07:59:27;;;;;;;0.40;0.40;;;;;;;21.35;68.16;97907.63;5075732;28;20211;-60
2021/06/30 08:01:54;;;;;;;0.30;0.30;;;;;;;21.40;67.82;97897.19;5073705;28;20247;-61
2021/06/30 08:04:20;;;;;;;1.60;0.40;;;;;;;21.51;67.09;97902.97;5075353;28;20212;-60
2021/06/30 08:06:47;;;;;;;0.60;0.40;;;;;;;21.59;65.62;97900.22;5075234;28;20215;-60
2021/06/30 08:09:14;;;;;;;0.83;0.40;;;;;;;21.72;65.43;97896.97;5075131;28;20238;-60
2021/06/30 08:11:41;;;;;;;0.93;0.30;;;;;;;21.94;66.18;97896.91;5074872;28;20665;-60
2021/06/30 08:14:07;;;;;;;0.30;0.30;;;;;;;22.12;63.28;97893.91;5074677;28;20661;-61
2021/06/30 08:16:35;;;;;;;1.07;0.30;;;;;;;22.27;64.63;97898.28;5074945;28;20245;-60
2021/06/30 08:19:02;;;;;;;0.40;0.40;;;;;;;22.37;63.56;97900.72;5074907;28;20218;-60
2021/06/30 08:21:28;;;;;;;0.20;0.20;;;;;;;22.38;64.96;97892.41;5074983;28;20277;-60
2021/06/30 08:23:54;;;;;;;0.40;0.40;;;;;;;22.31;62.83;97896.88;5074953;28;20211;-61
2021/06/30 08:26:21;;;;;;;0.70;0.60;;;;;;;22.14;64.24;97900.75;5072907;28;20214;-61
2021/06/30 08:28:48;;;;;;;0.60;0.60;;;;;;;21.82;66.62;97906.44;5074772;28;20222;-61
2021/06/30 08:31:14;;;;;;;0.70;0.60;;;;;;;21.59;65.51;97902.06;5074605;28;20247;-61
2021/06/30 08:33:42;;;;;;;1.20;0.50;;;;;;;21.26;65.96;97912.22;5074435;28;20673;-61
2021/06/30 08:36:09;;;;;;;1.60;0.50;;;;;;;21.06;67.51;97904.78;5074327;28;20231;-61
2021/06/30 08:38:35;;;;;;;0.43;0.43;;;;;;;20.84;68.99;97911.75;5073769;28;20215;-61
2021/06/30 08:41:02;;;;;;;0.97;0.53;;;;;;;20.59;67.78;97922.75;5074312;28;20216;-62
2021/06/30 08:43:29;;;;;;;0.90;0.40;;;;;;;20.13;74.52;97927.09;5074386;28;20302;-61
2021/06/30 08:45:56;;;;;;;0.30;0.30;;;;;;;19.81;74.63;97920.88;5074459;28;20233;-62
2021/06/30 08:48:27;;;;;;;0.40;0.40;;;;;;;19.77;75.97;97920.38;5074460;28;20216;-62
2021/06/30 08:50:58;;;;;;;0.30;0.30;;;;;;;19.67;79.97;97929.59;5074301;28;20216;-61
2021/06/30 08:53:26;;;;;;;0.50;0.40;;;;;;;19.34;84.14;97933.25;5072437;28;20303;-60
2021/06/30 08:55:52;;;;;;;0.77;0.40;;;;;;;18.91;87.61;97926.22;5073845;28;20234;-61
2021/06/30 08:58:20;;;;;;;0.40;0.40;;;;;;;18.53;92.33;97932.09;5073797;28;20218;-60
2021/06/30 09:00:47;;;;;;;1.53;0.60;;;;;;;18.37;94.76;97932.03;5073762;28;20677;-60
2021/06/30 09:03:16;;;;;;;0.40;0.40;;;;;;;18.43;97.13;97928.72;5074094;28;20208;-60
2021/06/30 09:08:57;;;;;;;0.40;0.40;;;;;;;18.85;90.50;97924.22;5073761;28;20302;-61
2021/06/30 09:11:27;;;;;;;0.37;0.37;;;;;;;19.14;87.32;97927.31;5074002;28;20214;-60
2021/06/30 09:14:15;;;;;;;0.80;0.60;;;;;;;19.47;86.11;97921.03;5073632;28;20741;-60
2021/06/30 09:17:07;;;;;;;1.27;0.43;;;;;;;19.70;85.34;97926.59;5073856;28;20235;-59
2021/06/30 09:20:03;;;;;;;1.27;0.60;;;;;;;19.71;84.52;97921.06;5071769;28;20219;-59
2021/06/30 09:22:39;;;;;;;0.60;0.40;;;;;;;19.56;78.45;97930.75;5073686;28;20239;-59
2021/06/30 09:25:07;;;;;;;1.10;0.40;;;;;;;19.51;81.50;97925.03;5073670;28;20266;-58
2021/06/30 09:27:43;;;;;;;0.50;0.40;;;;;;;19.61;81.54;97925.72;5073396;28;20677;-59
2021/06/30 09:30:12;;;;;;;1.27;0.57;;;;;;;19.78;83.13;97931.94;5073611;28;20233;-59
2021/06/30 09:32:57;;;;;;;0.97;0.40;;;;;;;19.94;82.52;97923.88;5073536;28;20218;-59
2021/06/30 09:35:25;;;;;;;0.50;0.40;;;;;;;20.11;80.09;97926.41;5072941;28;20230;-59
2021/06/30 09:37:52;;;;;;;0.70;0.40;;;;;;;20.24;79.08;97929.41;5073519;28;20600;-59
2021/06/30 09:40:20;;;;;;;0.63;0.50;;;;;;;20.77;77.20;97924.22;5073510;28;20208;-59
2021/06/30 09:42:48;;;;;;;0.47;0.37;;;;;;;21.40;75.30;97922.19;5073159;28;20226;-61
2021/06/30 09:45:17;;;;;;;0.43;0.30;;;;;;;21.82;68.53;97919.91;5071624;28;20204;-61
2021/06/30 09:47:46;;;;;;;0.30;0.30;;;;;;;22.22;69.80;97916.00;5073260;28;20215;-60
2021/06/30 09:50:13;;;;;;;0.20;0.20;;;;;;;22.45;64.37;97917.66;5072918;28;20220;-60
2021/06/30 09:52:41;;;;;;;0.30;0.30;;;;;;;22.41;63.40;97915.44;5073331;28;20203;-59
2021/06/30 09:55:24;;;;;;;0.30;0.30;;;;;;;22.66;65.57;97917.72;5073095;28;20207;-61
2021/06/30 09:57:51;;;;;;;0.30;0.30;;;;;;;22.80;62.71;97916.88;5071214;28;20210;-61
2021/06/30 10:00:19;;;;;;;0.40;0.20;;;;;;;22.71;64.32;97918.00;5072935;28;20214;-60
2021/06/30 10:02:48;;;;;;;0.30;0.30;;;;;;;22.71;61.75;97920.72;5072808;28;20676;-61
2021/06/30 10:05:15;;;;;;;0.30;0.30;;;;;;;22.79;61.94;97909.00;5073058;28;20308;-61
2021/06/30 10:07:42;;;;;;;0.27;0.27;;;;;;;22.75;60.41;97919.28;5072947;28;20775;-61
2021/06/30 10:10:10;;;;;;;0.60;0.30;;;;;;;22.34;63.90;97914.53;5073175;28;20211;-62
2021/06/30 10:12:38;;;;;;;0.30;0.30;;;;;;;21.37;67.25;97914.50;5071135;28;20211;-61
2021/06/30 10:15:07;;;;;;;0.60;0.40;;;;;;;20.48;74.98;97921.28;5072643;28;20277;-61
2021/06/30 10:17:35;;;;;;;0.43;0.43;;;;;;;20.25;75.66;97925.69;5072563;28;20606;-61
2021/06/30 10:20:02;;;;;;;0.40;0.40;;;;;;;20.25;80.56;97920.34;5072792;28;20281;-61
2021/06/30 10:22:30;;;;;;;0.50;0.40;;;;;;;20.63;76.07;97924.09;5072605;28;20215;-61
2021/06/30 10:24:57;;;;;;;0.40;0.40;;;;;;;21.15;72.19;97918.00;5072857;28;20232;-61
2021/06/30 10:27:25;;;;;;;0.30;0.30;;;;;;;21.47;67.85;97915.09;5072760;28;20217;-61
2021/06/30 10:29:55;;;;;;;0.30;0.30;;;;;;;21.77;69.70;97916.91;5072552;28;20696;-60
2021/06/30 10:32:22;;;;;;;0.40;0.40;;;;;;;22.17;70.77;97926.47;5072707;28;20203;-60
2021/06/30 10:34:52;;;;;;;0.23;0.23;;;;;;;22.57;68.53;97916.16;5071844;28;20229;-60
2021/06/30 10:37:22;;;;;;;0.30;0.30;;;;;;;22.99;65.26;97910.91;5068305;28;20231;-61
2021/06/30 10:39:51;;;;;;;0.40;0.30;;;;;;;23.24;63.12;97915.00;5069106;28;20227;-62
2021/06/30 10:42:21;;;;;;;0.37;0.30;;;;;;;23.45;61.39;97917.69;5071145;28;20826;-61
2021/06/30 10:44:49;;;;;;;0.43;0.40;;;;;;;23.25;59.26;97907.72;5070707;28;20222;-61
2021/06/30 10:47:38;;;;;;;0.30;0.30;;;;;;;23.28;62.41;97910.06;5052625;28;20204;-61
2021/06/30 10:50:25;;;;;;;0.30;0.30;;;;;;;23.07;61.78;97899.19;5050975;28;20252;-61
2021/06/30 10:52:53;;;;;;;0.37;0.37;;;;;;;23.00;62.47;97891.03;5050204;28;20597;-61
2021/06/30 10:55:47;;;;;;;0.60;0.40;;;;;;;22.66;60.53;97903.41;5054152;28;20219;-60
2021/06/30 10:58:19;;;;;;;0.40;0.40;;;;;;;22.20;63.11;97897.31;5070938;28;20678;-61
2021/06/30 11:00:48;;;;;;;0.40;0.30;;;;;;;21.93;65.66;97899.78;5070156;28;20219;-61
2021/06/30 11:03:24;;;;;;;0.43;0.43;;;;;;;21.37;66.63;97903.75;5074529;28;20234;-61
2021/06/30 11:05:51;;;;;;;0.47;0.40;;;;;;;20.87;70.94;97900.66;5073011;28;20625;-61
2021/06/30 11:08:44;;;;;;;0.40;0.40;;;;;;;20.77;73.53;97905.41;5073793;28;20610;-61
2021/06/30 11:11:11;;;;;;;0.30;0.30;;;;;;;20.86;72.97;97898.97;5074400;28;20579;-61
2021/06/30 11:14:02;;;;;;;0.93;0.50;;;;;;;20.87;68.96;97900.66;5074012;28;20218;-61
2021/06/30 11:16:51;;;;;;;0.50;0.50;;;;;;;21.21;67.63;97892.28;5074200;28;20261;-61
2021/06/30 11:19:49;;;;;;;0.40;0.40;;;;;;;21.64;68.09;97892.44;5074281;28;20638;-61
2021/06/30 11:22:25;;;;;;;0.40;0.40;;;;;;;21.89;62.77;97899.31;5073817;28;20620;-61
2021/06/30 11:24:52;;;;;;;0.50;0.50;;;;;;;22.00;60.56;97890.81;5074681;28;20211;-60
2021/06/30 11:27:49;;;;;;;2.00;0.70;;;;;;;22.01;60.83;97891.66;5074213;28;20221;-61
2021/06/30 11:30:30;;;;;;;0.97;0.50;;;;;;;22.12;59.65;97888.53;5075035;28;20212;-60
2021/06/30 11:32:56;;;;;;;0.90;0.50;;;;;;;22.18;60.69;97872.44;5073266;28;20214;-61
2021/06/30 11:35:34;;;;;;;0.83;0.40;;;;;;;22.37;58.01;97869.22;5075208;28;20215;-61
2021/06/30 11:38:10;;;;;;;0.50;0.50;;;;;;;22.36;60.09;97866.72;5074844;28;20757;-60